Emerson, Iowa
Current Conditions -  °F | °C
As of 4:35 PM on Monday 24 Nov 2014 (Local Time) from KRDK Reporting Station
Clear Clear  
Wind Chill: 24°   Ceiling: Unl
Heat Index: 34°   Visibility: 10mi
Dew Point: 19°   Wind: 14mph
Humidity: 56%   Direction: 310°NW
Pressure: 29.85"   Gusts: 24mph
Location:  41.02°N, 95.4°W
Report Text: KRDK 242235Z AUTO 31012G21KT 10SM CLR 01/M07 A2985 RMK AO2
Loading
Personal Weather Stations






























Interactive Weather Map New forecast layout! Learn more

10-Day Weather Forecast

Advertisements
Track Severe Weather on mobile